createdAt,value
2018-09-23T00:00:25.540Z,14.70
2018-09-23T00:02:54.800Z,14.70
2018-09-23T00:05:24.088Z,14.70
2018-09-23T00:07:53.844Z,14.70
2018-09-23T00:10:23.078Z,14.70
2018-09-23T00:12:52.865Z,14.70
2018-09-23T00:15:22.269Z,14.70
2018-09-23T00:17:52.198Z,14.70
2018-09-23T00:20:21.780Z,14.70
2018-09-23T00:22:51.006Z,14.80
2018-09-23T00:25:20.236Z,14.70
2018-09-23T00:27:49.486Z,14.70
2018-09-23T00:30:18.704Z,14.70
2018-09-23T00:32:47.916Z,14.70
2018-09-23T00:35:17.508Z,14.70
2018-09-23T00:37:46.707Z,14.70
2018-09-23T00:40:15.941Z,14.70
2018-09-23T00:42:45.190Z,14.70
2018-09-23T00:45:14.420Z,14.60
2018-09-23T00:47:43.641Z,14.60
2018-09-23T00:50:12.876Z,14.60
2018-09-23T00:52:42.097Z,14.60
2018-09-23T00:55:11.354Z,14.60
2018-09-23T00:57:40.893Z,14.60
2018-09-23T01:00:10.188Z,14.60
2018-09-23T01:02:39.469Z,14.60
2018-09-23T01:05:09.222Z,14.60
2018-09-23T01:07:38.456Z,14.50
2018-09-23T01:10:07.740Z,14.50
2018-09-23T01:12:37.052Z,14.50
2018-09-23T01:15:06.669Z,14.50
2018-09-23T01:17:35.900Z,14.50
2018-09-23T01:20:06.147Z,14.50
2018-09-23T01:22:35.504Z,14.50
2018-09-23T01:25:04.821Z,14.40
2018-09-23T01:27:34.065Z,14.40
2018-09-23T01:30:03.332Z,14.40
2018-09-23T01:32:32.744Z,14.50
2018-09-23T01:35:02.021Z,14.50
2018-09-23T01:37:31.257Z,14.50
2018-09-23T01:40:00.472Z,14.50
2018-09-23T01:42:30.096Z,14.50
2018-09-23T01:44:59.304Z,14.50
2018-09-23T01:47:28.521Z,14.50
2018-09-23T01:49:57.792Z,14.40
2018-09-23T01:52:27.129Z,14.40
2018-09-23T01:54:56.365Z,14.40
2018-09-23T01:57:25.596Z,14.50
2018-09-23T01:59:54.844Z,14.50
2018-09-23T02:02:24.380Z,14.50
2018-09-23T02:04:54.165Z,14.50
2018-09-23T02:07:23.728Z,14.40
2018-09-23T02:09:52.948Z,14.50
2018-09-23T02:12:22.205Z,14.50
2018-09-23T02:14:51.432Z,14.40
2018-09-23T02:17:20.793Z,14.50
2018-09-23T02:19:50.313Z,14.50
2018-09-23T02:22:19.942Z,14.50
2018-09-23T02:24:49.497Z,14.50
2018-09-23T02:27:19.018Z,14.50
2018-09-23T02:29:48.664Z,14.40
2018-09-23T02:32:17.899Z,14.40
2018-09-23T02:34:47.160Z,14.40
2018-09-23T02:37:16.422Z,14.40
2018-09-23T02:39:45.641Z,14.40
2018-09-23T02:42:14.892Z,14.40
2018-09-23T02:44:44.132Z,14.30
2018-09-23T02:47:13.576Z,14.30
2018-09-23T02:49:43.116Z,14.30
2018-09-23T02:52:12.368Z,14.30
2018-09-23T02:54:42.111Z,14.30
2018-09-23T02:57:11.394Z,14.30
2018-09-23T02:59:40.616Z,14.30
2018-09-23T03:02:09.848Z,14.20
2018-09-23T03:04:39.654Z,14.30
2018-09-23T03:07:08.927Z,14.30
2018-09-23T03:09:38.168Z,14.30
2018-09-23T03:12:07.709Z,14.30
2018-09-23T03:14:36.941Z,14.30
2018-09-23T03:17:06.237Z,14.30
2018-09-23T03:19:35.512Z,14.30
2018-09-23T03:22:04.748Z,14.30
2018-09-23T03:24:34.332Z,14.30
2018-09-23T03:27:03.663Z,14.30
2018-09-23T03:29:32.909Z,14.30
2018-09-23T03:32:02.241Z,14.30
2018-09-23T03:34:31.756Z,14.20
2018-09-23T03:37:01.183Z,14.10
2018-09-23T03:39:30.404Z,14.10
2018-09-23T03:41:59.656Z,14.10
2018-09-23T03:44:29.063Z,14.10
2018-09-23T03:46:58.280Z,14.10
2018-09-23T03:49:27.581Z,14.10
2018-09-23T03:51:56.805Z,14.10
2018-09-23T03:54:26.014Z,14.10
2018-09-23T03:56:55.777Z,14.10
2018-09-23T03:59:24.996Z,14.10
2018-09-23T04:01:54.229Z,14.10
2018-09-23T04:04:23.468Z,14.00
2018-09-23T04:06:52.712Z,14.10
2018-09-23T04:09:21.948Z,14.10
2018-09-23T04:11:51.217Z,14.10
2018-09-23T04:14:20.643Z,14.10
2018-09-23T04:16:49.873Z,14.10
2018-09-23T04:19:19.485Z,14.10
2018-09-23T04:21:48.703Z,14.10
2018-09-23T04:24:17.941Z,14.10
2018-09-23T04:26:47.524Z,14.10
2018-09-23T04:29:17.056Z,14.10
2018-09-23T04:31:46.297Z,14.10
2018-09-23T04:34:15.729Z,14.10
2018-09-23T04:36:45.223Z,14.00
2018-09-23T04:39:14.432Z,14.00
2018-09-23T04:41:43.956Z,14.00
2018-09-23T04:44:13.181Z,14.00
2018-09-23T04:46:42.418Z,14.00
2018-09-23T04:49:11.644Z,14.00
2018-09-23T04:51:41.069Z,14.00
2018-09-23T04:54:10.312Z,14.00
2018-09-23T04:56:39.557Z,14.00
2018-09-23T04:59:08.782Z,14.00
2018-09-23T05:01:38.012Z,14.10
2018-09-23T05:04:07.523Z,14.00
2018-09-23T05:06:36.751Z,14.00
2018-09-23T05:09:08.023Z,14.00
2018-09-23T05:11:37.565Z,14.00
2018-09-23T05:14:07.155Z,14.00
2018-09-23T05:16:36.456Z,14.00
2018-09-23T05:19:05.791Z,14.00
2018-09-23T05:21:35.211Z,14.00
2018-09-23T05:24:04.556Z,14.00
2018-09-23T05:26:33.808Z,14.00
2018-09-23T05:29:03.680Z,14.00
2018-09-23T05:31:32.922Z,14.00
2018-09-23T05:34:02.145Z,14.00
2018-09-23T05:36:31.388Z,14.00
2018-09-23T05:39:00.636Z,14.10
2018-09-23T05:41:30.172Z,14.10
2018-09-23T05:43:59.466Z,14.10
2018-09-23T05:46:29.313Z,14.10
2018-09-23T05:48:58.542Z,14.10
2018-09-23T05:51:27.769Z,14.10
2018-09-23T05:53:57.022Z,14.10
2018-09-23T05:56:26.292Z,14.10
2018-09-23T05:58:55.515Z,14.10
2018-09-23T06:01:24.813Z,14.10
2018-09-23T06:03:54.184Z,14.20
2018-09-23T06:06:23.474Z,14.20
2018-09-23T06:08:53.347Z,14.20
2018-09-23T06:11:22.573Z,14.20
2018-09-23T06:13:51.812Z,14.20
2018-09-23T06:16:21.059Z,14.30
2018-09-23T06:18:50.276Z,14.30
2018-09-23T06:21:19.508Z,14.20
2018-09-23T06:23:48.748Z,14.20
2018-09-23T06:26:18.180Z,14.20
2018-09-23T06:28:47.401Z,14.20
2018-09-23T06:31:17.368Z,14.30
2018-09-23T06:33:46.591Z,14.30
2018-09-23T06:36:15.857Z,14.30
2018-09-23T06:38:45.171Z,14.30
2018-09-23T06:41:14.402Z,14.30
2018-09-23T06:43:43.632Z,14.30
2018-09-23T06:46:12.908Z,14.40
2018-09-23T06:48:42.124Z,14.40
2018-09-23T06:51:11.442Z,14.40
2018-09-23T06:53:41.059Z,14.40
2018-09-23T06:56:10.271Z,14.50
2018-09-23T06:58:39.581Z,14.50
2018-09-23T07:01:08.892Z,14.50
2018-09-23T07:03:38.100Z,14.50
2018-09-23T07:06:07.532Z,14.60
2018-09-23T07:08:36.833Z,14.60
2018-09-23T07:11:06.549Z,14.60
2018-09-23T07:13:35.877Z,14.60
2018-09-23T07:16:05.369Z,14.70
2018-09-23T07:18:35.168Z,14.70
2018-09-23T07:21:04.393Z,14.70
2018-09-23T07:23:33.683Z,14.70
2018-09-23T07:26:02.968Z,14.70
2018-09-23T07:28:32.525Z,14.80
2018-09-23T07:31:01.806Z,14.80
2018-09-23T07:33:31.252Z,14.80
2018-09-23T07:36:00.488Z,14.90
2018-09-23T07:38:31.540Z,14.90
2018-09-23T07:41:00.752Z,14.90
2018-09-23T07:43:30.221Z,14.90
2018-09-23T07:45:59.490Z,14.90
2018-09-23T07:48:28.862Z,15.00
2018-09-23T07:50:58.085Z,14.90
2018-09-23T07:53:27.448Z,14.90
2018-09-23T07:55:56.660Z,14.90
2018-09-23T07:58:25.877Z,15.00
2018-09-23T08:00:55.567Z,15.00
2018-09-23T08:03:24.836Z,15.10
2018-09-23T08:05:54.008Z,15.10
2018-09-23T08:08:23.243Z,15.10
2018-09-23T08:10:52.527Z,15.10
2018-09-23T08:13:21.914Z,15.10
2018-09-23T08:15:51.056Z,15.10
2018-09-23T08:18:20.433Z,15.20
2018-09-23T08:20:49.680Z,15.20
2018-09-23T08:23:19.625Z,15.20
2018-09-23T08:25:48.784Z,15.20
2018-09-23T08:28:18.002Z,15.20
2018-09-23T08:30:47.254Z,15.30
2018-09-23T08:33:16.504Z,15.30
2018-09-23T08:35:46.165Z,15.30
2018-09-23T08:38:15.764Z,15.30
2018-09-23T08:40:45.000Z,15.30
2018-09-23T08:43:14.267Z,15.40
2018-09-23T08:45:43.892Z,15.40
2018-09-23T08:48:13.183Z,15.40
2018-09-23T08:50:42.372Z,15.50
2018-09-23T08:53:11.612Z,15.50
2018-09-23T08:55:40.848Z,15.50
2018-09-23T08:58:10.181Z,15.70
2018-09-23T09:00:39.448Z,15.80
2018-09-23T09:03:08.724Z,16.00
2018-09-23T09:05:37.949Z,16.20
2018-09-23T09:08:07.602Z,16.30
2018-09-23T09:10:36.823Z,16.40
2018-09-23T09:13:06.277Z,16.50
2018-09-23T09:15:35.576Z,16.60
2018-09-23T09:18:04.897Z,16.70
2018-09-23T09:20:34.081Z,16.90
2018-09-23T09:23:03.328Z,17.30
2018-09-23T09:25:32.556Z,17.50
2018-09-23T09:28:01.790Z,17.70
2018-09-23T09:30:31.305Z,17.70
2018-09-23T09:33:00.520Z,17.90
2018-09-23T09:35:29.758Z,18.10
2018-09-23T09:37:59.027Z,18.30
2018-09-23T09:40:28.294Z,18.60
2018-09-23T09:42:57.520Z,18.70
2018-09-23T09:45:26.776Z,18.80
2018-09-23T09:47:56.676Z,18.90
2018-09-23T09:50:25.897Z,18.90
2018-09-23T09:52:55.627Z,18.90
2018-09-23T09:55:25.097Z,18.90
2018-09-23T09:57:55.540Z,18.90
2018-09-23T10:00:30.121Z,19.00
2018-09-23T10:02:59.650Z,19.00
2018-09-23T10:05:28.874Z,18.90
2018-09-23T10:07:58.252Z,18.90
2018-09-23T10:10:27.788Z,18.90
2018-09-23T10:12:57.363Z,18.90
2018-09-23T10:15:26.648Z,18.90
2018-09-23T10:17:55.863Z,19.00
2018-09-23T10:20:25.085Z,19.10
2018-09-23T10:22:54.549Z,19.10
2018-09-23T10:25:24.045Z,19.20
2018-09-23T10:27:53.260Z,19.40
2018-09-23T10:30:22.687Z,19.60
2018-09-23T10:32:51.908Z,19.60
2018-09-23T10:35:22.114Z,19.50
2018-09-23T10:37:51.792Z,19.50
2018-09-23T10:40:21.599Z,19.50
2018-09-23T10:42:50.826Z,19.60
2018-09-23T10:45:20.465Z,19.80
2018-09-23T10:47:49.681Z,20.00
2018-09-23T10:50:18.912Z,20.20
2018-09-23T10:52:48.533Z,20.40
2018-09-23T10:55:18.043Z,20.50
2018-09-23T10:57:47.300Z,20.70
2018-09-23T11:00:16.608Z,20.80
2018-09-23T11:02:45.949Z,20.80
2018-09-23T11:05:15.181Z,20.60
2018-09-23T11:07:44.851Z,20.50
2018-09-23T11:10:14.070Z,20.40
2018-09-23T11:12:44.557Z,20.40
2018-09-23T11:15:13.902Z,20.40
2018-09-23T11:17:43.091Z,20.40
2018-09-23T11:20:12.316Z,20.50
2018-09-23T11:22:41.578Z,20.50
2018-09-23T11:25:10.909Z,20.40
2018-09-23T11:27:40.240Z,20.40
2018-09-23T11:30:09.536Z,20.30
2018-09-23T11:32:39.116Z,20.40
2018-09-23T11:35:08.868Z,20.60
2018-09-23T11:37:38.397Z,20.60
2018-09-23T11:40:08.183Z,20.60
2018-09-23T11:42:37.665Z,20.60
2018-09-23T11:45:07.417Z,20.60
2018-09-23T11:47:36.780Z,20.70
2018-09-23T11:50:06.160Z,21.00
2018-09-23T11:52:35.483Z,21.30
2018-09-23T11:55:04.760Z,21.80
2018-09-23T11:57:34.016Z,21.90
2018-09-23T12:00:03.852Z,22.00
2018-09-23T12:02:33.233Z,22.00
2018-09-23T12:05:02.473Z,22.10
2018-09-23T12:07:31.844Z,22.40
2018-09-23T12:10:01.092Z,22.70
2018-09-23T12:12:30.615Z,23.10
2018-09-23T12:14:59.865Z,23.00
2018-09-23T12:17:29.300Z,22.80
2018-09-23T12:19:58.521Z,22.80
2018-09-23T12:22:28.128Z,22.70
2018-09-23T12:24:57.336Z,23.10
2018-09-23T12:27:26.588Z,22.90
2018-09-23T12:29:55.835Z,22.90
2018-09-23T12:32:25.113Z,23.10
2018-09-23T12:34:54.332Z,24.10
2018-09-23T12:37:23.626Z,24.80
2018-09-23T12:39:53.435Z,24.80
2018-09-23T12:42:22.599Z,24.30
2018-09-23T12:44:51.938Z,23.70
2018-09-23T12:47:21.176Z,23.40
2018-09-23T12:49:50.457Z,23.40
2018-09-23T12:52:19.771Z,23.40
2018-09-23T12:54:49.104Z,23.30
2018-09-23T12:57:18.345Z,23.20
2018-09-23T12:59:47.584Z,23.10
2018-09-23T13:02:17.352Z,23.00
2018-09-23T13:04:46.557Z,22.90
2018-09-23T13:07:16.432Z,22.90
2018-09-23T13:09:45.816Z,22.90
2018-09-23T13:12:15.040Z,22.80
2018-09-23T13:14:44.482Z,22.70
2018-09-23T13:17:13.684Z,22.80
2018-09-23T13:19:42.936Z,22.90
2018-09-23T13:22:12.415Z,22.90
2018-09-23T13:24:41.615Z,22.80
2018-09-23T13:27:11.003Z,22.80
2018-09-23T13:29:40.776Z,22.80
2018-09-23T13:32:10.024Z,22.90
2018-09-23T13:34:39.354Z,23.00
2018-09-23T13:37:09.101Z,23.00
2018-09-23T13:39:38.347Z,22.90
2018-09-23T13:42:07.694Z,22.80
2018-09-23T13:44:36.971Z,22.70
2018-09-23T13:47:06.281Z,22.80
2018-09-23T13:49:35.552Z,22.90
2018-09-23T13:52:05.096Z,23.10
2018-09-23T13:54:34.522Z,23.30
2018-09-23T13:57:03.776Z,23.50
2018-09-23T13:59:33.040Z,23.50
2018-09-23T14:02:02.284Z,23.50
2018-09-23T14:04:31.764Z,23.40
2018-09-23T14:07:01.015Z,23.60
2018-09-23T14:09:32.437Z,23.60
2018-09-23T14:12:01.962Z,23.70
2018-09-23T14:14:31.468Z,24.00
2018-09-23T14:17:00.705Z,24.70
2018-09-23T14:19:29.920Z,25.40
2018-09-23T14:21:59.538Z,25.80
2018-09-23T14:24:28.761Z,26.10
2018-09-23T14:26:58.000Z,26.20
2018-09-23T14:29:27.250Z,25.60
2018-09-23T14:31:56.468Z,25.00
2018-09-23T14:34:25.677Z,24.80
2018-09-23T14:36:55.026Z,24.60
2018-09-23T14:39:24.300Z,24.40
2018-09-23T14:41:53.816Z,24.20
2018-09-23T14:44:23.053Z,24.10
2018-09-23T14:46:52.363Z,24.20
2018-09-23T14:49:21.652Z,24.30
2018-09-23T14:51:50.965Z,24.10
2018-09-23T14:54:20.531Z,24.00
2018-09-23T14:56:49.756Z,24.00
2018-09-23T14:59:19.285Z,24.00
2018-09-23T15:01:48.545Z,24.00
2018-09-23T15:04:17.768Z,23.80
2018-09-23T15:06:47.004Z,23.70
2018-09-23T15:09:16.253Z,23.70
2018-09-23T15:11:45.503Z,23.60
2018-09-23T15:14:14.905Z,23.50
2018-09-23T15:16:44.153Z,23.50
2018-09-23T15:19:13.637Z,23.40
2018-09-23T15:21:43.094Z,23.40
2018-09-23T15:24:12.301Z,23.30
2018-09-23T15:26:41.526Z,23.20
2018-09-23T15:29:10.762Z,23.20
2018-09-23T15:31:40.019Z,23.00
2018-09-23T15:34:09.252Z,22.00
2018-09-23T15:36:38.513Z,19.10
2018-09-23T15:39:08.603Z,18.10
2018-09-23T15:41:38.307Z,17.70
2018-09-23T15:44:08.280Z,17.40
2018-09-23T15:46:37.524Z,17.30
2018-09-23T15:49:06.871Z,17.20
2018-09-23T15:51:36.152Z,17.10
2018-09-23T15:54:05.405Z,17.10
2018-09-23T15:56:34.621Z,17.00
2018-09-23T15:59:03.939Z,16.90
2018-09-23T16:01:33.528Z,17.00
2018-09-23T16:04:02.676Z,16.90
2018-09-23T16:06:32.252Z,17.00
2018-09-23T16:09:01.469Z,16.90
2018-09-23T16:11:30.717Z,16.80
2018-09-23T16:14:00.688Z,16.70
2018-09-23T16:16:29.916Z,16.70
2018-09-23T16:18:59.445Z,16.70
2018-09-23T16:21:28.674Z,16.70
2018-09-23T16:23:57.906Z,16.60
2018-09-23T16:26:27.121Z,16.60
2018-09-23T16:28:56.436Z,16.60
2018-09-23T16:31:25.673Z,16.60
2018-09-23T16:33:54.916Z,16.60
2018-09-23T16:36:24.204Z,16.60
2018-09-23T16:38:53.547Z,16.60
2018-09-23T16:41:22.852Z,16.60
2018-09-23T16:43:52.214Z,16.60
2018-09-23T16:46:21.501Z,16.50
2018-09-23T16:48:54.837Z,16.50
2018-09-23T16:51:24.456Z,16.50
2018-09-23T16:53:58.923Z,16.50
2018-09-23T16:56:28.173Z,16.50
2018-09-23T16:58:58.737Z,16.40
2018-09-23T17:01:28.057Z,16.30
2018-09-23T17:03:58.532Z,16.20
2018-09-23T17:06:28.190Z,16.10
2018-09-23T17:08:58.911Z,16.00
2018-09-23T17:11:28.280Z,16.00
2018-09-23T17:13:58.817Z,16.00
2018-09-23T17:16:28.133Z,16.00
2018-09-23T17:18:57.488Z,15.80
2018-09-23T17:21:27.016Z,15.60
2018-09-23T17:23:56.284Z,15.40
2018-09-23T17:26:25.624Z,15.30
2018-09-23T17:28:55.036Z,15.20
2018-09-23T17:31:24.649Z,15.20
2018-09-23T17:33:53.908Z,15.10
2018-09-23T17:36:23.504Z,15.10
2018-09-23T17:38:52.768Z,15.00
2018-09-23T17:41:21.995Z,14.90
2018-09-23T17:43:51.483Z,14.80
2018-09-23T17:46:20.769Z,14.70
2018-09-23T17:48:50.032Z,14.70
2018-09-23T17:51:20.459Z,14.60
2018-09-23T17:53:50.312Z,14.60
2018-09-23T17:56:19.693Z,14.40
2018-09-23T17:58:48.940Z,14.20
2018-09-23T18:01:18.212Z,14.20
2018-09-23T18:03:47.602Z,14.20
2018-09-23T18:06:16.900Z,14.10
2018-09-23T18:08:47.042Z,14.00
2018-09-23T18:11:18.573Z,14.00
2018-09-23T18:13:47.815Z,14.00
2018-09-23T18:16:17.400Z,14.00
2018-09-23T18:18:46.628Z,13.90
2018-09-23T18:21:15.880Z,14.00
2018-09-23T18:23:45.148Z,13.80
2018-09-23T18:26:14.691Z,13.50
2018-09-23T18:28:43.960Z,13.60
2018-09-23T18:31:13.204Z,13.60
2018-09-23T18:33:42.508Z,13.70
2018-09-23T18:36:11.740Z,13.70
2018-09-23T18:38:41.092Z,13.60
2018-09-23T18:41:10.337Z,13.50
2018-09-23T18:43:39.564Z,13.50
2018-09-23T18:46:09.200Z,13.40
2018-09-23T18:48:38.440Z,13.40
2018-09-23T18:51:07.776Z,13.40
2018-09-23T18:53:37.204Z,13.30
2018-09-23T18:56:06.476Z,13.00
2018-09-23T18:58:35.848Z,13.20
2018-09-23T19:01:05.186Z,13.20
2018-09-23T19:03:34.447Z,13.20
2018-09-23T19:06:03.706Z,13.00
2018-09-23T19:08:32.984Z,13.00
2018-09-23T19:11:02.204Z,13.00
2018-09-23T19:13:36.673Z,13.10
2018-09-23T19:16:11.254Z,13.00
2018-09-23T19:18:40.871Z,13.00
2018-09-23T19:21:10.109Z,12.80
2018-09-23T19:23:39.332Z,12.80
2018-09-23T19:26:08.600Z,12.70
2018-09-23T19:28:37.860Z,12.60
2018-09-23T19:31:07.095Z,12.50
2018-09-23T19:33:36.374Z,12.50
2018-09-23T19:36:05.636Z,12.40
2018-09-23T19:38:34.907Z,12.50
2018-09-23T19:41:04.685Z,12.40
2018-09-23T19:43:34.048Z,12.40
2018-09-23T19:46:03.584Z,12.30
2018-09-23T19:48:33.509Z,12.30
2018-09-23T19:51:02.781Z,12.30
2018-09-23T19:53:32.026Z,12.40
2018-09-23T19:56:01.279Z,12.40
2018-09-23T19:58:30.492Z,12.30
2018-09-23T20:00:59.732Z,12.30
2018-09-23T20:03:29.404Z,12.30
2018-09-23T20:05:58.638Z,12.30
2018-09-23T20:08:27.845Z,12.20
2018-09-23T20:10:57.114Z,12.10
2018-09-23T20:13:26.337Z,12.10
2018-09-23T20:15:55.552Z,11.90
2018-09-23T20:18:25.699Z,11.80
2018-09-23T20:20:54.933Z,11.70
2018-09-23T20:23:24.442Z,11.70
2018-09-23T20:25:53.944Z,11.60
2018-09-23T20:28:23.184Z,11.60
2018-09-23T20:30:52.396Z,11.50
2018-09-23T20:33:21.679Z,11.50
2018-09-23T20:35:50.991Z,11.60
2018-09-23T20:38:20.180Z,11.60
2018-09-23T20:40:49.561Z,11.40
2018-09-23T20:43:18.802Z,11.50
2018-09-23T20:45:48.045Z,11.50
2018-09-23T20:48:17.633Z,11.40
2018-09-23T20:50:47.348Z,11.50
2018-09-23T20:53:16.560Z,11.50
2018-09-23T20:55:45.809Z,11.60
2018-09-23T20:58:15.028Z,11.40
2018-09-23T21:00:44.253Z,11.40
2018-09-23T21:03:13.561Z,11.30
2018-09-23T21:05:42.776Z,11.30
2018-09-23T21:08:12.012Z,11.30
2018-09-23T21:10:41.672Z,11.30
2018-09-23T21:13:11.020Z,11.30
2018-09-23T21:15:40.249Z,11.30
2018-09-23T21:18:09.564Z,11.30
2018-09-23T21:20:38.776Z,11.30
2018-09-23T21:23:08.032Z,11.30
2018-09-23T21:25:37.484Z,11.30
2018-09-23T21:28:06.699Z,11.40
2018-09-23T21:30:35.911Z,11.20
2018-09-23T21:33:05.268Z,11.20
2018-09-23T21:35:34.610Z,11.20
2018-09-23T21:38:03.848Z,11.30
2018-09-23T21:40:33.116Z,11.30
2018-09-23T21:43:02.352Z,11.30
2018-09-23T21:45:31.583Z,11.40
2018-09-23T21:48:00.997Z,11.30
2018-09-23T21:50:30.264Z,11.30
2018-09-23T21:52:59.888Z,11.30
2018-09-23T21:55:29.388Z,11.30
2018-09-23T21:57:58.622Z,11.30
2018-09-23T22:00:33.132Z,11.30
2018-09-23T22:03:02.360Z,11.30
2018-09-23T22:05:31.589Z,11.30
2018-09-23T22:08:00.865Z,11.20
2018-09-23T22:10:30.083Z,11.20
2018-09-23T22:12:59.304Z,11.20
2018-09-23T22:15:28.636Z,11.30
2018-09-23T22:17:58.987Z,11.20
2018-09-23T22:20:28.213Z,11.20
2018-09-23T22:22:57.505Z,11.20
2018-09-23T22:25:26.772Z,11.20
2018-09-23T22:27:55.976Z,11.20
2018-09-23T22:30:25.235Z,11.20
2018-09-23T22:32:54.484Z,11.10
2018-09-23T22:35:23.732Z,11.00
2018-09-23T22:37:54.536Z,11.00
2018-09-23T22:40:23.791Z,11.10
2018-09-23T22:42:53.009Z,11.10
2018-09-23T22:45:22.273Z,11.10
2018-09-23T22:47:51.505Z,11.10
2018-09-23T22:50:20.741Z,11.10
2018-09-23T22:52:50.280Z,11.10
2018-09-23T22:55:19.632Z,11.10
2018-09-23T22:57:48.886Z,11.10
2018-09-23T23:00:18.589Z,11.10
2018-09-23T23:02:47.824Z,11.00
2018-09-23T23:05:17.047Z,10.90
2018-09-23T23:07:46.286Z,10.80
2018-09-23T23:10:15.507Z,10.80
2018-09-23T23:12:44.724Z,10.80
2018-09-23T23:15:13.985Z,10.80
2018-09-23T23:17:43.200Z,10.70
2018-09-23T23:20:12.427Z,10.70
2018-09-23T23:22:41.765Z,10.60
2018-09-23T23:25:11.101Z,10.60
2018-09-23T23:27:40.307Z,10.60
2018-09-23T23:30:09.564Z,10.60
2018-09-23T23:32:38.783Z,10.50
2018-09-23T23:35:08.524Z,10.50
2018-09-23T23:37:37.777Z,10.50
2018-09-23T23:40:07.588Z,10.50
2018-09-23T23:42:36.814Z,10.50
2018-09-23T23:45:08.456Z,10.40
2018-09-23T23:47:37.760Z,10.40
2018-09-23T23:50:06.964Z,10.40
2018-09-23T23:52:36.208Z,10.30
2018-09-23T23:55:05.464Z,10.40
2018-09-23T23:57:35.043Z,10.30
